sensor_id;sensor_type;location;lat;lon;timestamp;P1;durP1;ratioP1;P2;durP2;ratioP2
41263;SDS011;26998;48.714;9.414;2023-04-07T00:02:11;7.55;;;5.85;;
41263;SDS011;26998;48.714;9.414;2023-04-07T00:04:37;7.43;;;6.10;;
41263;SDS011;26998;48.714;9.414;2023-04-07T00:07:04;7.95;;;6.53;;
41263;SDS011;26998;48.714;9.414;2023-04-07T00:09:30;8.90;;;5.88;;
41263;SDS011;26998;48.714;9.414;2023-04-07T00:11:57;10.45;;;6.50;;
41263;SDS011;26998;48.714;9.414;2023-04-07T00:14:23;8.05;;;6.20;;
41263;SDS011;26998;48.714;9.414;2023-04-07T00:16:50;10.15;;;6.93;;
41263;SDS011;26998;48.714;9.414;2023-04-07T00:19:16;8.95;;;6.28;;
41263;SDS011;26998;48.714;9.414;2023-04-07T00:21:43;9.50;;;7.00;;
41263;SDS011;26998;48.714;9.414;2023-04-07T00:24:09;9.95;;;6.57;;
41263;SDS011;26998;48.714;9.414;2023-04-07T00:26:39;9.35;;;6.40;;
41263;SDS011;26998;48.714;9.414;2023-04-07T00:29:06;8.88;;;6.00;;
41263;SDS011;26998;48.714;9.414;2023-04-07T00:31:33;9.43;;;7.03;;
41263;SDS011;26998;48.714;9.414;2023-04-07T00:34:00;10.15;;;6.10;;
41263;SDS011;26998;48.714;9.414;2023-04-07T00:36:26;9.85;;;6.53;;
41263;SDS011;26998;48.714;9.414;2023-04-07T00:38:53;7.80;;;6.22;;
41263;SDS011;26998;48.714;9.414;2023-04-07T00:41:19;11.23;;;7.05;;
41263;SDS011;26998;48.714;9.414;2023-04-07T00:43:46;9.05;;;6.25;;
41263;SDS011;26998;48.714;9.414;2023-04-07T00:46:12;10.60;;;6.47;;
41263;SDS011;26998;48.714;9.414;2023-04-07T00:48:39;13.30;;;7.30;;
41263;SDS011;26998;48.714;9.414;2023-04-07T00:51:06;8.20;;;6.32;;
41263;SDS011;26998;48.714;9.414;2023-04-07T00:53:32;9.85;;;7.25;;
41263;SDS011;26998;48.714;9.414;2023-04-07T00:55:59;10.18;;;7.10;;
41263;SDS011;26998;48.714;9.414;2023-04-07T00:58:25;12.00;;;7.97;;
41263;SDS011;26998;48.714;9.414;2023-04-07T01:01:03;9.98;;;7.10;;
41263;SDS011;26998;48.714;9.414;2023-04-07T01:03:44;11.27;;;7.32;;
41263;SDS011;26998;48.714;9.414;2023-04-07T01:06:16;10.35;;;7.97;;
41263;SDS011;26998;48.714;9.414;2023-04-07T01:08:48;10.52;;;7.43;;
41263;SDS011;26998;48.714;9.414;2023-04-07T01:11:22;10.10;;;7.68;;
41263;SDS011;26998;48.714;9.414;2023-04-07T01:13:53;10.63;;;7.40;;
41263;SDS011;26998;48.714;9.414;2023-04-07T01:16:30;11.90;;;7.88;;
41263;SDS011;26998;48.714;9.414;2023-04-07T01:22:10;10.48;;;7.97;;
41263;SDS011;26998;48.714;9.414;2023-04-07T01:30:47;11.10;;;7.88;;
41263;SDS011;26998;48.714;9.414;2023-04-07T01:33:16;10.40;;;6.90;;
41263;SDS011;26998;48.714;9.414;2023-04-07T01:35:43;10.55;;;7.75;;
41263;SDS011;26998;48.714;9.414;2023-04-07T01:38:11;11.50;;;7.78;;
41263;SDS011;26998;48.714;9.414;2023-04-07T01:40:39;12.35;;;7.97;;
41263;SDS011;26998;48.714;9.414;2023-04-07T01:43:06;10.07;;;7.13;;
41263;SDS011;26998;48.714;9.414;2023-04-07T01:45:34;13.10;;;8.60;;
41263;SDS011;26998;48.714;9.414;2023-04-07T01:48:05;11.48;;;8.02;;
41263;SDS011;26998;48.714;9.414;2023-04-07T01:50:33;10.93;;;7.95;;
41263;SDS011;26998;48.714;9.414;2023-04-07T01:52:59;9.68;;;6.93;;
41263;SDS011;26998;48.714;9.414;2023-04-07T01:55:28;10.80;;;7.78;;
41263;SDS011;26998;48.714;9.414;2023-04-07T01:57:55;14.05;;;8.75;;
41263;SDS011;26998;48.714;9.414;2023-04-07T02:00:21;13.23;;;8.85;;
41263;SDS011;26998;48.714;9.414;2023-04-07T02:02:48;11.50;;;7.70;;
41263;SDS011;26998;48.714;9.414;2023-04-07T02:05:20;11.13;;;7.97;;
41263;SDS011;26998;48.714;9.414;2023-04-07T02:07:51;10.07;;;7.60;;
41263;SDS011;26998;48.714;9.414;2023-04-07T02:10:21;11.48;;;7.63;;
41263;SDS011;26998;48.714;9.414;2023-04-07T02:12:50;12.43;;;9.03;;
41263;SDS011;26998;48.714;9.414;2023-04-07T02:15:17;12.20;;;8.05;;
41263;SDS011;26998;48.714;9.414;2023-04-07T02:17:46;11.80;;;8.20;;
41263;SDS011;26998;48.714;9.414;2023-04-07T02:20:15;11.85;;;8.25;;
41263;SDS011;26998;48.714;9.414;2023-04-07T02:22:42;12.32;;;8.68;;
41263;SDS011;26998;48.714;9.414;2023-04-07T02:25:26;14.07;;;8.98;;
41263;SDS011;26998;48.714;9.414;2023-04-07T02:27:55;13.38;;;8.15;;
41263;SDS011;26998;48.714;9.414;2023-04-07T02:30:22;12.73;;;7.97;;
41263;SDS011;26998;48.714;9.414;2023-04-07T02:32:50;12.63;;;8.38;;
41263;SDS011;26998;48.714;9.414;2023-04-07T02:35:17;13.30;;;7.97;;
41263;SDS011;26998;48.714;9.414;2023-04-07T02:37:44;13.90;;;9.07;;
41263;SDS011;26998;48.714;9.414;2023-04-07T02:40:12;10.93;;;7.82;;
41263;SDS011;26998;48.714;9.414;2023-04-07T02:42:39;12.20;;;8.07;;
41263;SDS011;26998;48.714;9.414;2023-04-07T02:45:06;12.82;;;8.23;;
41263;SDS011;26998;48.714;9.414;2023-04-07T02:47:33;11.48;;;8.40;;
41263;SDS011;26998;48.714;9.414;2023-04-07T02:50:01;13.35;;;9.00;;
41263;SDS011;26998;48.714;9.414;2023-04-07T02:52:28;12.48;;;8.90;;
41263;SDS011;26998;48.714;9.414;2023-04-07T02:54:54;13.90;;;9.07;;
41263;SDS011;26998;48.714;9.414;2023-04-07T02:57:21;12.45;;;8.98;;
41263;SDS011;26998;48.714;9.414;2023-04-07T02:59:47;11.85;;;8.75;;
41263;SDS011;26998;48.714;9.414;2023-04-07T03:02:14;11.48;;;9.43;;
41263;SDS011;26998;48.714;9.414;2023-04-07T03:04:41;12.73;;;9.48;;
41263;SDS011;26998;48.714;9.414;2023-04-07T03:07:07;13.45;;;9.15;;
41263;SDS011;26998;48.714;9.414;2023-04-07T03:09:34;15.02;;;9.43;;
41263;SDS011;26998;48.714;9.414;2023-04-07T03:12:00;13.57;;;9.98;;
41263;SDS011;26998;48.714;9.414;2023-04-07T03:14:27;12.25;;;8.82;;
41263;SDS011;26998;48.714;9.414;2023-04-07T03:16:54;14.23;;;10.00;;
41263;SDS011;26998;48.714;9.414;2023-04-07T03:19:20;12.95;;;9.45;;
41263;SDS011;26998;48.714;9.414;2023-04-07T03:21:47;15.20;;;10.40;;
41263;SDS011;26998;48.714;9.414;2023-04-07T03:24:14;15.18;;;9.85;;
41263;SDS011;26998;48.714;9.414;2023-04-07T03:26:41;13.60;;;9.45;;
41263;SDS011;26998;48.714;9.414;2023-04-07T03:29:07;14.75;;;10.70;;
41263;SDS011;26998;48.714;9.414;2023-04-07T03:31:33;14.60;;;10.38;;
41263;SDS011;26998;48.714;9.414;2023-04-07T03:34:00;17.75;;;10.27;;
41263;SDS011;26998;48.714;9.414;2023-04-07T03:36:26;15.40;;;10.88;;
41263;SDS011;26998;48.714;9.414;2023-04-07T03:38:53;16.38;;;10.18;;
41263;SDS011;26998;48.714;9.414;2023-04-07T03:41:20;15.88;;;10.23;;
41263;SDS011;26998;48.714;9.414;2023-04-07T03:43:46;15.75;;;10.57;;
41263;SDS011;26998;48.714;9.414;2023-04-07T03:46:13;15.57;;;10.05;;
41263;SDS011;26998;48.714;9.414;2023-04-07T03:48:40;15.25;;;10.57;;
41263;SDS011;26998;48.714;9.414;2023-04-07T03:51:06;16.70;;;11.38;;
41263;SDS011;26998;48.714;9.414;2023-04-07T03:53:33;14.95;;;10.52;;
41263;SDS011;26998;48.714;9.414;2023-04-07T03:55:59;16.17;;;10.90;;
41263;SDS011;26998;48.714;9.414;2023-04-07T03:58:26;16.83;;;11.65;;
41263;SDS011;26998;48.714;9.414;2023-04-07T04:00:53;16.45;;;11.23;;
41263;SDS011;26998;48.714;9.414;2023-04-07T04:03:19;18.42;;;12.13;;
41263;SDS011;26998;48.714;9.414;2023-04-07T04:05:46;16.25;;;11.85;;
41263;SDS011;26998;48.714;9.414;2023-04-07T04:08:13;17.73;;;11.15;;
41263;SDS011;26998;48.714;9.414;2023-04-07T04:10:39;17.20;;;11.02;;
41263;SDS011;26998;48.714;9.414;2023-04-07T04:13:06;16.23;;;11.27;;
41263;SDS011;26998;48.714;9.414;2023-04-07T04:15:33;16.55;;;12.00;;
41263;SDS011;26998;48.714;9.414;2023-04-07T04:17:59;15.73;;;11.38;;
41263;SDS011;26998;48.714;9.414;2023-04-07T04:20:27;16.50;;;11.48;;
41263;SDS011;26998;48.714;9.414;2023-04-07T04:22:54;15.90;;;10.77;;
41263;SDS011;26998;48.714;9.414;2023-04-07T04:25:20;19.63;;;12.98;;
41263;SDS011;26998;48.714;9.414;2023-04-07T04:27:46;21.98;;;12.65;;
41263;SDS011;26998;48.714;9.414;2023-04-07T04:30:13;16.60;;;11.40;;
41263;SDS011;26998;48.714;9.414;2023-04-07T04:32:39;19.55;;;13.52;;
41263;SDS011;26998;48.714;9.414;2023-04-07T04:35:06;17.83;;;12.60;;
41263;SDS011;26998;48.714;9.414;2023-04-07T04:37:33;18.58;;;12.45;;
41263;SDS011;26998;48.714;9.414;2023-04-07T04:40:00;18.10;;;12.88;;
41263;SDS011;26998;48.714;9.414;2023-04-07T04:42:27;18.40;;;12.25;;
41263;SDS011;26998;48.714;9.414;2023-04-07T04:44:53;18.80;;;12.95;;
41263;SDS011;26998;48.714;9.414;2023-04-07T04:47:20;18.17;;;11.75;;
41263;SDS011;26998;48.714;9.414;2023-04-07T04:49:46;18.55;;;12.80;;
41263;SDS011;26998;48.714;9.414;2023-04-07T04:52:13;18.92;;;12.40;;
41263;SDS011;26998;48.714;9.414;2023-04-07T04:54:40;20.25;;;12.43;;
41263;SDS011;26998;48.714;9.414;2023-04-07T04:57:06;21.73;;;12.85;;
41263;SDS011;26998;48.714;9.414;2023-04-07T04:59:33;17.05;;;11.43;;
41263;SDS011;26998;48.714;9.414;2023-04-07T05:01:59;19.23;;;12.63;;
41263;SDS011;26998;48.714;9.414;2023-04-07T05:04:26;19.17;;;13.35;;
41263;SDS011;26998;48.714;9.414;2023-04-07T05:06:52;21.85;;;13.40;;
41263;SDS011;26998;48.714;9.414;2023-04-07T05:09:19;18.33;;;13.23;;
41263;SDS011;26998;48.714;9.414;2023-04-07T05:11:45;18.85;;;12.10;;
41263;SDS011;26998;48.714;9.414;2023-04-07T05:14:12;18.08;;;12.80;;
41263;SDS011;26998;48.714;9.414;2023-04-07T05:16:39;19.55;;;12.90;;
41263;SDS011;26998;48.714;9.414;2023-04-07T05:19:06;20.67;;;13.32;;
41263;SDS011;26998;48.714;9.414;2023-04-07T05:21:32;19.67;;;12.95;;
41263;SDS011;26998;48.714;9.414;2023-04-07T05:23:59;20.08;;;13.20;;
41263;SDS011;26998;48.714;9.414;2023-04-07T05:26:25;24.52;;;14.15;;
41263;SDS011;26998;48.714;9.414;2023-04-07T05:28:52;22.30;;;14.07;;
41263;SDS011;26998;48.714;9.414;2023-04-07T05:31:21;20.67;;;14.20;;
41263;SDS011;26998;48.714;9.414;2023-04-07T05:33:48;21.27;;;13.98;;
41263;SDS011;26998;48.714;9.414;2023-04-07T05:36:15;22.13;;;14.57;;
41263;SDS011;26998;48.714;9.414;2023-04-07T05:38:41;20.27;;;12.95;;
41263;SDS011;26998;48.714;9.414;2023-04-07T05:41:08;20.15;;;13.38;;
41263;SDS011;26998;48.714;9.414;2023-04-07T05:43:35;18.27;;;13.32;;
41263;SDS011;26998;48.714;9.414;2023-04-07T05:46:02;24.92;;;14.90;;
41263;SDS011;26998;48.714;9.414;2023-04-07T05:48:28;24.10;;;13.63;;
41263;SDS011;26998;48.714;9.414;2023-04-07T05:50:55;20.80;;;13.98;;
41263;SDS011;26998;48.714;9.414;2023-04-07T05:53:22;20.05;;;14.95;;
41263;SDS011;26998;48.714;9.414;2023-04-07T05:55:49;21.95;;;14.73;;
41263;SDS011;26998;48.714;9.414;2023-04-07T05:58:15;28.45;;;16.33;;
41263;SDS011;26998;48.714;9.414;2023-04-07T06:00:42;22.92;;;14.63;;
41263;SDS011;26998;48.714;9.414;2023-04-07T06:03:09;27.02;;;17.40;;
41263;SDS011;26998;48.714;9.414;2023-04-07T06:05:35;23.95;;;16.30;;
41263;SDS011;26998;48.714;9.414;2023-04-07T06:08:02;22.58;;;14.77;;
41263;SDS011;26998;48.714;9.414;2023-04-07T06:10:28;26.38;;;14.70;;
41263;SDS011;26998;48.714;9.414;2023-04-07T06:12:55;20.95;;;13.73;;
41263;SDS011;26998;48.714;9.414;2023-04-07T06:15:22;20.88;;;15.38;;
41263;SDS011;26998;48.714;9.414;2023-04-07T06:17:49;19.17;;;14.50;;
41263;SDS011;26998;48.714;9.414;2023-04-07T06:20:16;21.33;;;14.02;;
41263;SDS011;26998;48.714;9.414;2023-04-07T06:22:43;21.58;;;14.10;;
41263;SDS011;26998;48.714;9.414;2023-04-07T06:25:09;21.05;;;14.60;;
41263;SDS011;26998;48.714;9.414;2023-04-07T06:27:36;19.15;;;13.50;;
41263;SDS011;26998;48.714;9.414;2023-04-07T06:30:03;21.77;;;14.73;;
41263;SDS011;26998;48.714;9.414;2023-04-07T06:32:29;17.63;;;12.90;;
41263;SDS011;26998;48.714;9.414;2023-04-07T06:34:56;18.73;;;13.45;;
41263;SDS011;26998;48.714;9.414;2023-04-07T06:37:23;19.42;;;14.13;;
41263;SDS011;26998;48.714;9.414;2023-04-07T06:39:49;18.88;;;13.43;;
41263;SDS011;26998;48.714;9.414;2023-04-07T06:42:16;22.13;;;14.95;;
41263;SDS011;26998;48.714;9.414;2023-04-07T06:44:42;21.73;;;14.15;;
41263;SDS011;26998;48.714;9.414;2023-04-07T06:47:09;18.83;;;13.38;;
41263;SDS011;26998;48.714;9.414;2023-04-07T06:49:36;19.65;;;12.93;;
41263;SDS011;26998;48.714;9.414;2023-04-07T06:52:03;18.40;;;13.10;;
41263;SDS011;26998;48.714;9.414;2023-04-07T06:54:30;20.48;;;13.02;;
41263;SDS011;26998;48.714;9.414;2023-04-07T06:56:56;19.08;;;12.77;;
41263;SDS011;26998;48.714;9.414;2023-04-07T06:59:23;17.88;;;12.38;;
41263;SDS011;26998;48.714;9.414;2023-04-07T07:01:49;17.77;;;12.70;;
41263;SDS011;26998;48.714;9.414;2023-04-07T07:04:16;18.27;;;13.23;;
41263;SDS011;26998;48.714;9.414;2023-04-07T07:06:43;20.00;;;13.10;;
41263;SDS011;26998;48.714;9.414;2023-04-07T07:09:09;19.85;;;13.95;;
41263;SDS011;26998;48.714;9.414;2023-04-07T07:11:36;20.42;;;13.80;;
41263;SDS011;26998;48.714;9.414;2023-04-07T07:14:03;20.40;;;14.10;;
41263;SDS011;26998;48.714;9.414;2023-04-07T07:16:29;19.42;;;12.93;;
41263;SDS011;26998;48.714;9.414;2023-04-07T07:18:55;19.88;;;13.57;;
41263;SDS011;26998;48.714;9.414;2023-04-07T07:21:22;18.30;;;11.73;;
41263;SDS011;26998;48.714;9.414;2023-04-07T07:23:48;16.00;;;11.45;;
41263;SDS011;26998;48.714;9.414;2023-04-07T07:26:15;14.57;;;11.13;;
41263;SDS011;26998;48.714;9.414;2023-04-07T07:28:42;18.30;;;11.68;;
41263;SDS011;26998;48.714;9.414;2023-04-07T07:31:09;13.45;;;10.13;;
41263;SDS011;26998;48.714;9.414;2023-04-07T07:33:36;14.60;;;11.43;;
41263;SDS011;26998;48.714;9.414;2023-04-07T07:36:02;14.25;;;9.95;;
41263;SDS011;26998;48.714;9.414;2023-04-07T07:38:29;12.77;;;9.40;;
41263;SDS011;26998;48.714;9.414;2023-04-07T07:40:56;12.77;;;10.55;;
41263;SDS011;26998;48.714;9.414;2023-04-07T07:43:22;12.95;;;10.23;;
41263;SDS011;26998;48.714;9.414;2023-04-07T07:45:49;12.15;;;10.20;;
41263;SDS011;26998;48.714;9.414;2023-04-07T07:48:15;12.27;;;9.43;;
41263;SDS011;26998;48.714;9.414;2023-04-07T07:50:42;13.07;;;10.07;;
41263;SDS011;26998;48.714;9.414;2023-04-07T07:53:10;11.00;;;9.30;;
41263;SDS011;26998;48.714;9.414;2023-04-07T07:55:36;13.75;;;10.45;;
41263;SDS011;26998;48.714;9.414;2023-04-07T07:58:03;12.98;;;9.82;;
41263;SDS011;26998;48.714;9.414;2023-04-07T08:00:29;11.63;;;9.90;;
41263;SDS011;26998;48.714;9.414;2023-04-07T08:02:56;12.35;;;9.77;;
41263;SDS011;26998;48.714;9.414;2023-04-07T08:05:23;13.30;;;10.00;;
41263;SDS011;26998;48.714;9.414;2023-04-07T08:07:50;14.73;;;10.55;;
41263;SDS011;26998;48.714;9.414;2023-04-07T08:10:19;13.25;;;10.65;;
41263;SDS011;26998;48.714;9.414;2023-04-07T08:12:46;12.95;;;10.57;;
41263;SDS011;26998;48.714;9.414;2023-04-07T08:15:13;12.00;;;10.35;;
41263;SDS011;26998;48.714;9.414;2023-04-07T08:17:39;13.32;;;10.60;;
41263;SDS011;26998;48.714;9.414;2023-04-07T08:20:06;13.10;;;9.77;;
41263;SDS011;26998;48.714;9.414;2023-04-07T08:22:33;11.05;;;9.23;;
41263;SDS011;26998;48.714;9.414;2023-04-07T08:25:00;15.38;;;10.30;;
41263;SDS011;26998;48.714;9.414;2023-04-07T08:27:27;14.40;;;10.40;;
41263;SDS011;26998;48.714;9.414;2023-04-07T08:29:58;12.23;;;9.77;;
41263;SDS011;26998;48.714;9.414;2023-04-07T08:32:32;10.40;;;9.00;;
41263;SDS011;26998;48.714;9.414;2023-04-07T08:35:03;10.02;;;8.65;;
41263;SDS011;26998;48.714;9.414;2023-04-07T08:37:30;11.65;;;8.77;;
41263;SDS011;26998;48.714;9.414;2023-04-07T08:42:38;10.05;;;8.15;;
41263;SDS011;26998;48.714;9.414;2023-04-07T08:45:06;11.27;;;8.05;;
41263;SDS011;26998;48.714;9.414;2023-04-07T08:47:37;8.88;;;7.97;;
41263;SDS011;26998;48.714;9.414;2023-04-07T08:50:07;11.85;;;8.18;;
41263;SDS011;26998;48.714;9.414;2023-04-07T08:55:22;9.45;;;6.72;;
41263;SDS011;26998;48.714;9.414;2023-04-07T08:57:49;7.13;;;6.43;;
41263;SDS011;26998;48.714;9.414;2023-04-07T09:00:16;8.60;;;7.28;;
41263;SDS011;26998;48.714;9.414;2023-04-07T09:02:43;8.65;;;7.45;;
41263;SDS011;26998;48.714;9.414;2023-04-07T09:05:11;9.48;;;6.70;;
41263;SDS011;26998;48.714;9.414;2023-04-07T09:07:38;7.10;;;6.32;;
41263;SDS011;26998;48.714;9.414;2023-04-07T09:10:05;9.18;;;7.18;;
41263;SDS011;26998;48.714;9.414;2023-04-07T09:12:35;6.95;;;6.20;;
41263;SDS011;26998;48.714;9.414;2023-04-07T09:15:03;9.68;;;6.35;;
41263;SDS011;26998;48.714;9.414;2023-04-07T09:17:31;8.23;;;6.97;;
41263;SDS011;26998;48.714;9.414;2023-04-07T09:19:59;14.38;;;7.75;;
41263;SDS011;26998;48.714;9.414;2023-04-07T09:22:39;8.38;;;7.40;;
41263;SDS011;26998;48.714;9.414;2023-04-07T09:25:12;9.18;;;7.20;;
41263;SDS011;26998;48.714;9.414;2023-04-07T09:30:22;11.48;;;7.32;;
41263;SDS011;26998;48.714;9.414;2023-04-07T09:32:49;7.55;;;5.93;;
41263;SDS011;26998;48.714;9.414;2023-04-07T09:35:16;9.15;;;6.45;;
41263;SDS011;26998;48.714;9.414;2023-04-07T09:37:43;8.18;;;6.60;;
41263;SDS011;26998;48.714;9.414;2023-04-07T09:40:10;8.27;;;6.15;;
41263;SDS011;26998;48.714;9.414;2023-04-07T09:42:45;6.97;;;5.57;;
41263;SDS011;26998;48.714;9.414;2023-04-07T09:45:12;9.20;;;5.45;;
41263;SDS011;26998;48.714;9.414;2023-04-07T09:48:06;7.88;;;6.25;;
41263;SDS011;26998;48.714;9.414;2023-04-07T09:50:46;6.57;;;5.47;;
41263;SDS011;26998;48.714;9.414;2023-04-07T09:53:15;6.75;;;5.47;;
41263;SDS011;26998;48.714;9.414;2023-04-07T09:55:41;7.35;;;5.70;;
41263;SDS011;26998;48.714;9.414;2023-04-07T09:58:12;7.85;;;5.47;;
41263;SDS011;26998;48.714;9.414;2023-04-07T10:00:45;7.93;;;4.60;;
41263;SDS011;26998;48.714;9.414;2023-04-07T10:03:12;7.63;;;4.93;;
41263;SDS011;26998;48.714;9.414;2023-04-07T10:05:40;6.05;;;4.47;;
41263;SDS011;26998;48.714;9.414;2023-04-07T10:08:08;5.18;;;4.43;;
41263;SDS011;26998;48.714;9.414;2023-04-07T10:10:35;8.48;;;4.38;;
41263;SDS011;26998;48.714;9.414;2023-04-07T10:13:03;5.30;;;3.80;;
41263;SDS011;26998;48.714;9.414;2023-04-07T10:15:30;6.43;;;3.63;;
41263;SDS011;26998;48.714;9.414;2023-04-07T10:17:57;8.35;;;4.43;;
41263;SDS011;26998;48.714;9.414;2023-04-07T10:20:26;7.53;;;3.90;;
41263;SDS011;26998;48.714;9.414;2023-04-07T10:22:54;6.07;;;3.95;;
41263;SDS011;26998;48.714;9.414;2023-04-07T10:25:27;7.28;;;3.92;;
41263;SDS011;26998;48.714;9.414;2023-04-07T10:28:04;6.82;;;4.35;;
41263;SDS011;26998;48.714;9.414;2023-04-07T10:30:33;7.00;;;3.90;;
41263;SDS011;26998;48.714;9.414;2023-04-07T10:33:01;8.00;;;4.43;;
41263;SDS011;26998;48.714;9.414;2023-04-07T10:35:27;7.38;;;4.65;;
41263;SDS011;26998;48.714;9.414;2023-04-07T10:38:14;5.07;;;3.65;;
41263;SDS011;26998;48.714;9.414;2023-04-07T10:40:41;8.02;;;4.50;;
41263;SDS011;26998;48.714;9.414;2023-04-07T10:43:09;4.47;;;3.80;;
41263;SDS011;26998;48.714;9.414;2023-04-07T10:48:16;6.40;;;3.85;;
41263;SDS011;26998;48.714;9.414;2023-04-07T10:50:45;6.32;;;4.95;;
41263;SDS011;26998;48.714;9.414;2023-04-07T10:53:31;5.43;;;4.65;;
41263;SDS011;26998;48.714;9.414;2023-04-07T10:55:58;6.22;;;5.22;;
41263;SDS011;26998;48.714;9.414;2023-04-07T10:58:29;8.73;;;5.85;;
41263;SDS011;26998;48.714;9.414;2023-04-07T11:03:25;8.95;;;4.90;;
41263;SDS011;26998;48.714;9.414;2023-04-07T11:06:03;5.40;;;4.57;;
41263;SDS011;26998;48.714;9.414;2023-04-07T11:08:33;9.27;;;5.38;;
41263;SDS011;26998;48.714;9.414;2023-04-07T11:11:01;6.65;;;4.97;;
41263;SDS011;26998;48.714;9.414;2023-04-07T11:13:28;8.15;;;4.57;;
41263;SDS011;26998;48.714;9.414;2023-04-07T11:16:05;6.45;;;4.20;;
41263;SDS011;26998;48.714;9.414;2023-04-07T11:18:32;8.57;;;4.88;;
41263;SDS011;26998;48.714;9.414;2023-04-07T11:20:59;8.80;;;4.55;;
41263;SDS011;26998;48.714;9.414;2023-04-07T11:23:25;5.85;;;4.78;;
41263;SDS011;26998;48.714;9.414;2023-04-07T11:25:58;8.00;;;4.75;;
41263;SDS011;26998;48.714;9.414;2023-04-07T11:28:27;10.65;;;4.65;;
41263;SDS011;26998;48.714;9.414;2023-04-07T11:30:54;6.30;;;4.57;;
41263;SDS011;26998;48.714;9.414;2023-04-07T11:33:24;9.25;;;5.05;;
41263;SDS011;26998;48.714;9.414;2023-04-07T11:35:53;8.10;;;4.57;;
41263;SDS011;26998;48.714;9.414;2023-04-07T11:38:23;6.47;;;4.55;;
41263;SDS011;26998;48.714;9.414;2023-04-07T11:40:52;6.78;;;4.20;;
41263;SDS011;26998;48.714;9.414;2023-04-07T11:43:25;5.97;;;4.25;;
41263;SDS011;26998;48.714;9.414;2023-04-07T11:46:05;5.95;;;4.18;;
41263;SDS011;26998;48.714;9.414;2023-04-07T11:48:37;5.88;;;4.25;;
41263;SDS011;26998;48.714;9.414;2023-04-07T11:51:06;6.55;;;4.70;;
41263;SDS011;26998;48.714;9.414;2023-04-07T11:53:46;5.10;;;4.20;;
41263;SDS011;26998;48.714;9.414;2023-04-07T11:56:15;5.68;;;3.03;;
41263;SDS011;26998;48.714;9.414;2023-04-07T12:01:21;8.23;;;4.63;;
41263;SDS011;26998;48.714;9.414;2023-04-07T12:03:55;4.30;;;3.90;;
41263;SDS011;26998;48.714;9.414;2023-04-07T12:06:25;8.43;;;3.72;;
41263;SDS011;26998;48.714;9.414;2023-04-07T12:08:56;8.32;;;3.85;;
41263;SDS011;26998;48.714;9.414;2023-04-07T12:11:23;5.18;;;3.88;;
41263;SDS011;26998;48.714;9.414;2023-04-07T12:13:49;6.25;;;3.78;;
41263;SDS011;26998;48.714;9.414;2023-04-07T12:16:16;5.68;;;3.20;;
41263;SDS011;26998;48.714;9.414;2023-04-07T12:18:42;8.48;;;3.78;;
41263;SDS011;26998;48.714;9.414;2023-04-07T12:21:09;5.70;;;3.58;;
41263;SDS011;26998;48.714;9.414;2023-04-07T12:23:36;5.30;;;3.35;;
41263;SDS011;26998;48.714;9.414;2023-04-07T12:26:03;6.65;;;4.32;;
41263;SDS011;26998;48.714;9.414;2023-04-07T12:28:29;5.72;;;3.60;;
41263;SDS011;26998;48.714;9.414;2023-04-07T12:30:56;5.55;;;3.67;;
41263;SDS011;26998;48.714;9.414;2023-04-07T12:33:24;5.95;;;3.97;;
41263;SDS011;26998;48.714;9.414;2023-04-07T12:35:50;7.47;;;3.75;;
41263;SDS011;26998;48.714;9.414;2023-04-07T12:38:17;5.75;;;3.80;;
41263;SDS011;26998;48.714;9.414;2023-04-07T12:40:44;8.48;;;4.43;;
41263;SDS011;26998;48.714;9.414;2023-04-07T12:43:11;5.47;;;3.60;;
41263;SDS011;26998;48.714;9.414;2023-04-07T12:45:38;4.40;;;3.40;;
41263;SDS011;26998;48.714;9.414;2023-04-07T12:48:05;8.20;;;3.67;;
41263;SDS011;26998;48.714;9.414;2023-04-07T12:50:31;5.32;;;3.45;;
41263;SDS011;26998;48.714;9.414;2023-04-07T12:53:01;3.97;;;3.03;;
41263;SDS011;26998;48.714;9.414;2023-04-07T12:55:29;5.40;;;3.05;;
41263;SDS011;26998;48.714;9.414;2023-04-07T12:57:58;9.98;;;4.95;;
41263;SDS011;26998;48.714;9.414;2023-04-07T13:00:25;8.52;;;5.28;;
41263;SDS011;26998;48.714;9.414;2023-04-07T13:02:52;12.13;;;5.60;;
41263;SDS011;26998;48.714;9.414;2023-04-07T13:05:19;9.05;;;5.90;;
41263;SDS011;26998;48.714;9.414;2023-04-07T13:07:45;9.65;;;5.82;;
41263;SDS011;26998;48.714;9.414;2023-04-07T13:10:14;10.27;;;6.68;;
41263;SDS011;26998;48.714;9.414;2023-04-07T13:12:41;9.77;;;6.25;;
41263;SDS011;26998;48.714;9.414;2023-04-07T13:15:07;7.45;;;4.90;;
41263;SDS011;26998;48.714;9.414;2023-04-07T13:17:34;9.10;;;4.82;;
41263;SDS011;26998;48.714;9.414;2023-04-07T13:20:04;6.00;;;4.78;;
41263;SDS011;26998;48.714;9.414;2023-04-07T13:22:31;6.88;;;4.40;;
41263;SDS011;26998;48.714;9.414;2023-04-07T13:25:00;4.95;;;3.65;;
41263;SDS011;26998;48.714;9.414;2023-04-07T13:27:27;5.97;;;3.92;;
41263;SDS011;26998;48.714;9.414;2023-04-07T13:29:54;7.25;;;3.78;;
41263;SDS011;26998;48.714;9.414;2023-04-07T13:32:20;5.80;;;3.78;;
41263;SDS011;26998;48.714;9.414;2023-04-07T13:34:47;6.35;;;3.85;;
41263;SDS011;26998;48.714;9.414;2023-04-07T13:37:13;3.75;;;2.70;;
41263;SDS011;26998;48.714;9.414;2023-04-07T13:39:40;2.95;;;2.22;;
41263;SDS011;26998;48.714;9.414;2023-04-07T13:42:06;3.83;;;3.35;;
41263;SDS011;26998;48.714;9.414;2023-04-07T13:44:33;2.97;;;2.17;;
41263;SDS011;26998;48.714;9.414;2023-04-07T13:47:00;5.03;;;2.65;;
41263;SDS011;26998;48.714;9.414;2023-04-07T13:49:26;3.08;;;2.72;;
41263;SDS011;26998;48.714;9.414;2023-04-07T13:51:53;6.15;;;2.45;;
41263;SDS011;26998;48.714;9.414;2023-04-07T13:54:20;4.55;;;2.65;;
41263;SDS011;26998;48.714;9.414;2023-04-07T13:56:47;4.80;;;2.70;;
41263;SDS011;26998;48.714;9.414;2023-04-07T13:59:14;3.50;;;2.42;;
41263;SDS011;26998;48.714;9.414;2023-04-07T14:01:41;6.75;;;2.97;;
41263;SDS011;26998;48.714;9.414;2023-04-07T14:04:07;4.45;;;3.08;;
41263;SDS011;26998;48.714;9.414;2023-04-07T14:06:34;4.97;;;2.72;;
41263;SDS011;26998;48.714;9.414;2023-04-07T14:09:01;5.85;;;2.75;;
41263;SDS011;26998;48.714;9.414;2023-04-07T14:11:27;4.68;;;2.83;;
41263;SDS011;26998;48.714;9.414;2023-04-07T14:13:54;6.28;;;3.25;;
41263;SDS011;26998;48.714;9.414;2023-04-07T14:16:21;5.90;;;3.33;;
41263;SDS011;26998;48.714;9.414;2023-04-07T14:18:48;5.57;;;3.40;;
41263;SDS011;26998;48.714;9.414;2023-04-07T14:21:14;7.47;;;3.70;;
41263;SDS011;26998;48.714;9.414;2023-04-07T14:23:41;3.35;;;3.05;;
41263;SDS011;26998;48.714;9.414;2023-04-07T14:26:09;6.22;;;3.80;;
41263;SDS011;26998;48.714;9.414;2023-04-07T14:28:36;6.25;;;4.13;;
41263;SDS011;26998;48.714;9.414;2023-04-07T14:31:03;5.72;;;4.15;;
41263;SDS011;26998;48.714;9.414;2023-04-07T14:33:30;5.38;;;3.50;;
41263;SDS011;26998;48.714;9.414;2023-04-07T14:35:56;7.53;;;4.53;;
41263;SDS011;26998;48.714;9.414;2023-04-07T14:38:23;4.80;;;3.33;;
41263;SDS011;26998;48.714;9.414;2023-04-07T14:40:50;6.45;;;4.05;;
41263;SDS011;26998;48.714;9.414;2023-04-07T14:43:17;4.95;;;3.63;;
41263;SDS011;26998;48.714;9.414;2023-04-07T14:45:44;4.75;;;3.63;;
41263;SDS011;26998;48.714;9.414;2023-04-07T14:48:13;5.13;;;3.92;;
41263;SDS011;26998;48.714;9.414;2023-04-07T14:50:40;7.03;;;3.55;;
41263;SDS011;26998;48.714;9.414;2023-04-07T14:53:07;5.72;;;3.70;;
41263;SDS011;26998;48.714;9.414;2023-04-07T14:55:33;7.75;;;3.88;;
41263;SDS011;26998;48.714;9.414;2023-04-07T14:58:00;3.97;;;3.33;;
41263;SDS011;26998;48.714;9.414;2023-04-07T15:00:27;6.07;;;3.83;;
41263;SDS011;26998;48.714;9.414;2023-04-07T15:02:53;4.18;;;3.42;;
41263;SDS011;26998;48.714;9.414;2023-04-07T15:05:21;6.47;;;4.28;;